KBIF/BIF METAR and TAF weather

Enter ICAO airport designator
Station Type Date Time Source
KBIF METAR 2021/03/01 02:58 UTC NOAA

KBIF 010258Z AUTO 31018G25KT 10SM CLR 12/M19 A2993 RMK AO2 PK WND 27030/46 PRESRR SLP105 T01201195 53033 $


Station Type Date Time Source
KBIF Decoded METAR 2021/03/01 02:58 UTC NOAA

Biggs Army Air Field / Ft. Bliss, TX, United States (KBIF) 31-51N 106-23W
Feb 28, 2021 - 09:58 PM EST / 2021.03.01 0258 UTC
Wind: from the NW (310 degrees) at 21 MPH (18 KT) gusting to 29 MPH (25 KT):0
Visibility: 10 mile(s):0
Sky conditions: clear
Temperature: 53.6 F (12.0 C)
Dew Point: -3.1 F (-19.5 C)
Relative Humidity: 9%
Pressure (altimeter): 29.93 in. Hg (1013 hPa)
Pressure tendency: rising rapidly - 0.10 inches (3.3 hPa) higher than three hours ago
ob: KBIF 010258Z AUTO 31018G25KT 10SM CLR 12/M19 A2993 RMK AO2 PK WND 27030/46 PRESRR SLP105 T01201195 53033
cycle: 3

Station Type Date Time Source
KBIF TAF 2021/02/28 22:09 UTC NOAA

TAF KBIF 282208Z 2822/0204 27010G15KT 9999 SKC QNH2984INS
TEMPO 2822/2824 29012G18KT
BECMG 2823/2824 23025G35KT 9999 SKC 510005 QNH2990INS
BECMG 0108/0109 27009KT 9999 SKC QNH3010INS
BECMG 0115/0116 09010G15KT 9999 SKC QNH3022INS TX20/2823Z TNM01/0112Z

Example: see airport list